sensor_id;sensor_type;location;lat;lon;timestamp;P1;durP1;ratioP1;P2;durP2;ratioP2
18445;SDS011;9352;50.888;4.466;2023-03-14T00:00:04;6.18;;;1.50;;
18445;SDS011;9352;50.888;4.466;2023-03-14T00:02:33;7.75;;;1.95;;
18445;SDS011;9352;50.888;4.466;2023-03-14T00:05:00;5.80;;;1.33;;
18445;SDS011;9352;50.888;4.466;2023-03-14T00:07:33;4.85;;;1.60;;
18445;SDS011;9352;50.888;4.466;2023-03-14T00:10:00;13.55;;;1.48;;
18445;SDS011;9352;50.888;4.466;2023-03-14T00:12:29;8.85;;;1.70;;
18445;SDS011;9352;50.888;4.466;2023-03-14T00:14:57;8.80;;;1.88;;
18445;SDS011;9352;50.888;4.466;2023-03-14T00:17:25;7.50;;;2.08;;
18445;SDS011;9352;50.888;4.466;2023-03-14T00:19:52;7.50;;;2.35;;
18445;SDS011;9352;50.888;4.466;2023-03-14T00:22:19;13.75;;;1.92;;
18445;SDS011;9352;50.888;4.466;2023-03-14T00:24:47;7.63;;;1.55;;
18445;SDS011;9352;50.888;4.466;2023-03-14T00:27:14;9.25;;;2.00;;
18445;SDS011;9352;50.888;4.466;2023-03-14T00:29:42;13.90;;;1.90;;
18445;SDS011;9352;50.888;4.466;2023-03-14T00:32:09;8.52;;;1.90;;
18445;SDS011;9352;50.888;4.466;2023-03-14T00:34:36;10.30;;;1.67;;
18445;SDS011;9352;50.888;4.466;2023-03-14T00:37:03;9.38;;;1.70;;
18445;SDS011;9352;50.888;4.466;2023-03-14T00:39:30;10.32;;;2.10;;
18445;SDS011;9352;50.888;4.466;2023-03-14T00:41:58;8.02;;;1.63;;
18445;SDS011;9352;50.888;4.466;2023-03-14T00:44:25;8.27;;;1.50;;
18445;SDS011;9352;50.888;4.466;2023-03-14T00:46:52;8.23;;;1.60;;
18445;SDS011;9352;50.888;4.466;2023-03-14T00:49:19;10.00;;;2.10;;
18445;SDS011;9352;50.888;4.466;2023-03-14T00:51:46;11.55;;;2.03;;
18445;SDS011;9352;50.888;4.466;2023-03-14T00:54:13;8.00;;;2.40;;
18445;SDS011;9352;50.888;4.466;2023-03-14T00:56:40;10.18;;;1.92;;
18445;SDS011;9352;50.888;4.466;2023-03-14T00:59:08;8.32;;;2.10;;
18445;SDS011;9352;50.888;4.466;2023-03-14T01:01:35;14.27;;;2.53;;
18445;SDS011;9352;50.888;4.466;2023-03-14T01:04:02;15.95;;;1.90;;
18445;SDS011;9352;50.888;4.466;2023-03-14T01:06:29;12.43;;;2.00;;
18445;SDS011;9352;50.888;4.466;2023-03-14T01:08:56;8.35;;;1.90;;
18445;SDS011;9352;50.888;4.466;2023-03-14T01:11:24;7.55;;;1.90;;
18445;SDS011;9352;50.888;4.466;2023-03-14T01:13:52;11.10;;;1.95;;
18445;SDS011;9352;50.888;4.466;2023-03-14T01:16:21;11.23;;;2.20;;
18445;SDS011;9352;50.888;4.466;2023-03-14T01:18:49;14.00;;;2.30;;
18445;SDS011;9352;50.888;4.466;2023-03-14T01:21:17;11.15;;;2.33;;
18445;SDS011;9352;50.888;4.466;2023-03-14T01:23:46;10.35;;;1.90;;
18445;SDS011;9352;50.888;4.466;2023-03-14T01:26:14;7.93;;;1.92;;
18445;SDS011;9352;50.888;4.466;2023-03-14T01:28:44;14.93;;;2.10;;
18445;SDS011;9352;50.888;4.466;2023-03-14T01:31:12;9.30;;;1.63;;
18445;SDS011;9352;50.888;4.466;2023-03-14T01:33:41;10.18;;;2.42;;
18445;SDS011;9352;50.888;4.466;2023-03-14T01:36:09;10.70;;;2.03;;
18445;SDS011;9352;50.888;4.466;2023-03-14T01:38:37;11.10;;;1.88;;
18445;SDS011;9352;50.888;4.466;2023-03-14T01:41:06;8.52;;;2.13;;
18445;SDS011;9352;50.888;4.466;2023-03-14T01:43:34;12.23;;;1.98;;
18445;SDS011;9352;50.888;4.466;2023-03-14T01:48:50;11.43;;;2.10;;
18445;SDS011;9352;50.888;4.466;2023-03-14T01:51:25;6.20;;;1.52;;
18445;SDS011;9352;50.888;4.466;2023-03-14T01:53:58;11.02;;;1.88;;
18445;SDS011;9352;50.888;4.466;2023-03-14T01:56:30;6.55;;;1.77;;
18445;SDS011;9352;50.888;4.466;2023-03-14T01:58:58;8.35;;;1.83;;
18445;SDS011;9352;50.888;4.466;2023-03-14T02:01:28;4.50;;;1.35;;
18445;SDS011;9352;50.888;4.466;2023-03-14T02:03:58;3.00;;;1.13;;
18445;SDS011;9352;50.888;4.466;2023-03-14T02:06:29;7.15;;;1.23;;
18445;SDS011;9352;50.888;4.466;2023-03-14T02:08:59;6.72;;;1.42;;
18445;SDS011;9352;50.888;4.466;2023-03-14T02:11:28;3.13;;;1.10;;
18445;SDS011;9352;50.888;4.466;2023-03-14T02:13:56;1.17;;;0.93;;
18445;SDS011;9352;50.888;4.466;2023-03-14T02:16:24;3.72;;;0.98;;
18445;SDS011;9352;50.888;4.466;2023-03-14T02:18:51;3.55;;;1.20;;
18445;SDS011;9352;50.888;4.466;2023-03-14T02:21:20;1.70;;;0.82;;
18445;SDS011;9352;50.888;4.466;2023-03-14T02:23:55;3.08;;;1.27;;
18445;SDS011;9352;50.888;4.466;2023-03-14T02:26:31;6.55;;;1.13;;
18445;SDS011;9352;50.888;4.466;2023-03-14T02:29:04;7.00;;;1.15;;
18445;SDS011;9352;50.888;4.466;2023-03-14T02:31:31;7.97;;;1.30;;
18445;SDS011;9352;50.888;4.466;2023-03-14T02:33:58;2.60;;;1.13;;
18445;SDS011;9352;50.888;4.466;2023-03-14T02:36:27;2.17;;;0.90;;
18445;SDS011;9352;50.888;4.466;2023-03-14T02:38:55;6.80;;;1.25;;
18445;SDS011;9352;50.888;4.466;2023-03-14T02:41:30;4.47;;;1.35;;
18445;SDS011;9352;50.888;4.466;2023-03-14T02:43:57;2.38;;;1.20;;
18445;SDS011;9352;50.888;4.466;2023-03-14T02:46:25;5.25;;;1.30;;
18445;SDS011;9352;50.888;4.466;2023-03-14T02:48:53;3.40;;;1.40;;
18445;SDS011;9352;50.888;4.466;2023-03-14T02:51:24;4.07;;;1.35;;
18445;SDS011;9352;50.888;4.466;2023-03-14T02:53:53;3.30;;;1.33;;
18445;SDS011;9352;50.888;4.466;2023-03-14T02:56:20;3.95;;;1.67;;
18445;SDS011;9352;50.888;4.466;2023-03-14T02:58:47;6.40;;;1.67;;
18445;SDS011;9352;50.888;4.466;2023-03-14T03:01:14;8.40;;;2.30;;
18445;SDS011;9352;50.888;4.466;2023-03-14T03:03:42;7.43;;;2.20;;
18445;SDS011;9352;50.888;4.466;2023-03-14T03:06:10;7.25;;;2.08;;
18445;SDS011;9352;50.888;4.466;2023-03-14T03:08:37;4.72;;;2.10;;
18445;SDS011;9352;50.888;4.466;2023-03-14T03:11:04;8.23;;;2.22;;
18445;SDS011;9352;50.888;4.466;2023-03-14T03:13:31;9.45;;;1.98;;
18445;SDS011;9352;50.888;4.466;2023-03-14T03:15:58;6.68;;;2.33;;
18445;SDS011;9352;50.888;4.466;2023-03-14T03:18:25;14.40;;;2.38;;
18445;SDS011;9352;50.888;4.466;2023-03-14T03:20:53;9.27;;;2.08;;
18445;SDS011;9352;50.888;4.466;2023-03-14T03:23:20;8.50;;;2.50;;
18445;SDS011;9352;50.888;4.466;2023-03-14T03:25:48;8.23;;;2.20;;
18445;SDS011;9352;50.888;4.466;2023-03-14T03:28:16;8.93;;;2.20;;
18445;SDS011;9352;50.888;4.466;2023-03-14T03:30:42;9.60;;;2.10;;
18445;SDS011;9352;50.888;4.466;2023-03-14T03:33:10;10.07;;;2.30;;
18445;SDS011;9352;50.888;4.466;2023-03-14T03:35:44;11.65;;;2.75;;
18445;SDS011;9352;50.888;4.466;2023-03-14T03:38:13;11.70;;;2.75;;
18445;SDS011;9352;50.888;4.466;2023-03-14T03:40:41;10.50;;;3.28;;
18445;SDS011;9352;50.888;4.466;2023-03-14T03:43:08;13.90;;;3.00;;
18445;SDS011;9352;50.888;4.466;2023-03-14T03:45:35;11.18;;;3.20;;
18445;SDS011;9352;50.888;4.466;2023-03-14T03:48:02;11.35;;;3.08;;
18445;SDS011;9352;50.888;4.466;2023-03-14T03:50:29;8.35;;;2.83;;
18445;SDS011;9352;50.888;4.466;2023-03-14T03:52:56;14.18;;;3.00;;
18445;SDS011;9352;50.888;4.466;2023-03-14T03:55:25;6.00;;;2.78;;
18445;SDS011;9352;50.888;4.466;2023-03-14T03:57:53;9.40;;;2.72;;
18445;SDS011;9352;50.888;4.466;2023-03-14T04:00:20;11.48;;;3.15;;
18445;SDS011;9352;50.888;4.466;2023-03-14T04:02:47;10.65;;;2.75;;
18445;SDS011;9352;50.888;4.466;2023-03-14T04:05:14;6.45;;;2.78;;
18445;SDS011;9352;50.888;4.466;2023-03-14T04:07:40;12.05;;;3.17;;
18445;SDS011;9352;50.888;4.466;2023-03-14T04:10:08;13.27;;;3.22;;
18445;SDS011;9352;50.888;4.466;2023-03-14T04:12:37;5.82;;;2.58;;
18445;SDS011;9352;50.888;4.466;2023-03-14T04:15:04;16.95;;;3.53;;
18445;SDS011;9352;50.888;4.466;2023-03-14T04:17:31;10.30;;;2.72;;
18445;SDS011;9352;50.888;4.466;2023-03-14T04:19:58;9.32;;;3.05;;
18445;SDS011;9352;50.888;4.466;2023-03-14T04:22:25;9.82;;;3.38;;
18445;SDS011;9352;50.888;4.466;2023-03-14T04:24:52;10.55;;;3.30;;
18445;SDS011;9352;50.888;4.466;2023-03-14T04:27:19;9.23;;;3.70;;
18445;SDS011;9352;50.888;4.466;2023-03-14T04:29:47;10.27;;;3.72;;
18445;SDS011;9352;50.888;4.466;2023-03-14T04:32:14;9.82;;;3.45;;
18445;SDS011;9352;50.888;4.466;2023-03-14T04:34:41;13.93;;;3.78;;
18445;SDS011;9352;50.888;4.466;2023-03-14T04:37:08;9.50;;;3.70;;
18445;SDS011;9352;50.888;4.466;2023-03-14T04:39:35;16.42;;;4.80;;
18445;SDS011;9352;50.888;4.466;2023-03-14T04:42:02;10.93;;;3.90;;
18445;SDS011;9352;50.888;4.466;2023-03-14T04:44:29;7.63;;;3.70;;
18445;SDS011;9352;50.888;4.466;2023-03-14T04:46:57;10.00;;;4.40;;
18445;SDS011;9352;50.888;4.466;2023-03-14T04:49:24;6.78;;;3.92;;
18445;SDS011;9352;50.888;4.466;2023-03-14T04:51:51;7.28;;;3.90;;
18445;SDS011;9352;50.888;4.466;2023-03-14T04:54:18;8.93;;;3.88;;
18445;SDS011;9352;50.888;4.466;2023-03-14T04:56:45;13.80;;;4.53;;
18445;SDS011;9352;50.888;4.466;2023-03-14T04:59:12;7.53;;;3.90;;
18445;SDS011;9352;50.888;4.466;2023-03-14T05:01:39;7.72;;;3.63;;
18445;SDS011;9352;50.888;4.466;2023-03-14T05:04:07;8.15;;;3.60;;
18445;SDS011;9352;50.888;4.466;2023-03-14T05:06:34;10.27;;;3.75;;
18445;SDS011;9352;50.888;4.466;2023-03-14T05:09:01;11.18;;;4.03;;
18445;SDS011;9352;50.888;4.466;2023-03-14T05:11:30;6.82;;;3.70;;
18445;SDS011;9352;50.888;4.466;2023-03-14T05:13:57;9.65;;;4.30;;
18445;SDS011;9352;50.888;4.466;2023-03-14T05:16:24;6.25;;;3.22;;
18445;SDS011;9352;50.888;4.466;2023-03-14T05:18:51;10.60;;;3.38;;
18445;SDS011;9352;50.888;4.466;2023-03-14T05:21:19;8.35;;;3.40;;
18445;SDS011;9352;50.888;4.466;2023-03-14T05:23:46;7.68;;;3.15;;
18445;SDS011;9352;50.888;4.466;2023-03-14T05:26:13;6.95;;;2.92;;
18445;SDS011;9352;50.888;4.466;2023-03-14T05:28:41;11.10;;;2.85;;
18445;SDS011;9352;50.888;4.466;2023-03-14T05:31:09;9.15;;;3.13;;
18445;SDS011;9352;50.888;4.466;2023-03-14T05:33:36;6.60;;;3.17;;
18445;SDS011;9352;50.888;4.466;2023-03-14T05:36:03;8.48;;;2.80;;
18445;SDS011;9352;50.888;4.466;2023-03-14T05:38:32;2.65;;;2.20;;
18445;SDS011;9352;50.888;4.466;2023-03-14T05:40:59;4.20;;;2.28;;
18445;SDS011;9352;50.888;4.466;2023-03-14T05:43:26;5.88;;;2.58;;
18445;SDS011;9352;50.888;4.466;2023-03-14T05:45:52;9.95;;;2.55;;
18445;SDS011;9352;50.888;4.466;2023-03-14T05:48:19;5.28;;;2.80;;
18445;SDS011;9352;50.888;4.466;2023-03-14T05:50:47;2.58;;;2.42;;
18445;SDS011;9352;50.888;4.466;2023-03-14T05:53:20;2.80;;;2.60;;
18445;SDS011;9352;50.888;4.466;2023-03-14T05:55:50;8.52;;;3.25;;
18445;SDS011;9352;50.888;4.466;2023-03-14T05:58:17;5.82;;;2.88;;
18445;SDS011;9352;50.888;4.466;2023-03-14T06:00:44;4.55;;;3.22;;
18445;SDS011;9352;50.888;4.466;2023-03-14T06:03:11;2.78;;;2.58;;
18445;SDS011;9352;50.888;4.466;2023-03-14T06:05:38;3.00;;;2.78;;
18445;SDS011;9352;50.888;4.466;2023-03-14T06:08:05;3.47;;;2.58;;
18445;SDS011;9352;50.888;4.466;2023-03-14T06:10:32;6.47;;;2.88;;
18445;SDS011;9352;50.888;4.466;2023-03-14T06:13:01;6.65;;;3.08;;
18445;SDS011;9352;50.888;4.466;2023-03-14T06:15:28;11.32;;;3.03;;
18445;SDS011;9352;50.888;4.466;2023-03-14T06:17:55;5.30;;;2.80;;
18445;SDS011;9352;50.888;4.466;2023-03-14T06:20:22;5.22;;;2.90;;
18445;SDS011;9352;50.888;4.466;2023-03-14T06:22:49;4.40;;;3.03;;
18445;SDS011;9352;50.888;4.466;2023-03-14T06:25:16;5.82;;;2.70;;
18445;SDS011;9352;50.888;4.466;2023-03-14T06:27:43;7.18;;;2.70;;
18445;SDS011;9352;50.888;4.466;2023-03-14T06:30:12;8.13;;;2.97;;
18445;SDS011;9352;50.888;4.466;2023-03-14T06:32:39;5.50;;;2.60;;
18445;SDS011;9352;50.888;4.466;2023-03-14T06:35:06;4.30;;;2.47;;
18445;SDS011;9352;50.888;4.466;2023-03-14T06:37:33;3.90;;;2.58;;
18445;SDS011;9352;50.888;4.466;2023-03-14T06:40:00;7.15;;;2.75;;
18445;SDS011;9352;50.888;4.466;2023-03-14T06:42:27;5.28;;;2.72;;
18445;SDS011;9352;50.888;4.466;2023-03-14T06:44:54;3.13;;;2.60;;
18445;SDS011;9352;50.888;4.466;2023-03-14T06:47:22;3.97;;;2.30;;
18445;SDS011;9352;50.888;4.466;2023-03-14T06:49:49;3.95;;;2.47;;
18445;SDS011;9352;50.888;4.466;2023-03-14T06:52:17;10.35;;;3.60;;
18445;SDS011;9352;50.888;4.466;2023-03-14T06:54:49;5.78;;;2.97;;
18445;SDS011;9352;50.888;4.466;2023-03-14T06:57:16;2.78;;;2.53;;
18445;SDS011;9352;50.888;4.466;2023-03-14T06:59:43;8.35;;;3.00;;
18445;SDS011;9352;50.888;4.466;2023-03-14T07:02:10;2.58;;;1.70;;
18445;SDS011;9352;50.888;4.466;2023-03-14T07:04:39;3.45;;;1.70;;
18445;SDS011;9352;50.888;4.466;2023-03-14T07:07:06;7.03;;;1.90;;
18445;SDS011;9352;50.888;4.466;2023-03-14T07:09:33;5.15;;;2.20;;
18445;SDS011;9352;50.888;4.466;2023-03-14T07:12:00;5.40;;;2.20;;
18445;SDS011;9352;50.888;4.466;2023-03-14T07:14:29;4.55;;;2.40;;
18445;SDS011;9352;50.888;4.466;2023-03-14T07:16:56;6.75;;;2.78;;
18445;SDS011;9352;50.888;4.466;2023-03-14T07:19:23;4.22;;;2.80;;
18445;SDS011;9352;50.888;4.466;2023-03-14T07:21:51;5.45;;;3.25;;
18445;SDS011;9352;50.888;4.466;2023-03-14T07:24:18;5.30;;;2.83;;
18445;SDS011;9352;50.888;4.466;2023-03-14T07:26:45;9.30;;;2.58;;
18445;SDS011;9352;50.888;4.466;2023-03-14T07:29:12;2.92;;;2.25;;
18445;SDS011;9352;50.888;4.466;2023-03-14T07:31:39;5.22;;;2.30;;
18445;SDS011;9352;50.888;4.466;2023-03-14T07:34:06;3.47;;;2.30;;
18445;SDS011;9352;50.888;4.466;2023-03-14T07:36:33;7.35;;;3.25;;
18445;SDS011;9352;50.888;4.466;2023-03-14T07:39:01;3.92;;;2.42;;
18445;SDS011;9352;50.888;4.466;2023-03-14T07:41:29;8.45;;;2.67;;
18445;SDS011;9352;50.888;4.466;2023-03-14T07:43:56;5.10;;;2.35;;
18445;SDS011;9352;50.888;4.466;2023-03-14T07:46:23;8.30;;;2.53;;
18445;SDS011;9352;50.888;4.466;2023-03-14T07:48:50;8.35;;;2.42;;
18445;SDS011;9352;50.888;4.466;2023-03-14T07:51:17;6.50;;;2.55;;
18445;SDS011;9352;50.888;4.466;2023-03-14T07:53:44;5.18;;;2.50;;
18445;SDS011;9352;50.888;4.466;2023-03-14T07:56:12;5.40;;;2.40;;
18445;SDS011;9352;50.888;4.466;2023-03-14T07:58:39;6.25;;;2.70;;
18445;SDS011;9352;50.888;4.466;2023-03-14T08:01:06;5.78;;;2.72;;
18445;SDS011;9352;50.888;4.466;2023-03-14T08:03:33;4.10;;;2.60;;
18445;SDS011;9352;50.888;4.466;2023-03-14T08:06:00;2.83;;;2.17;;
18445;SDS011;9352;50.888;4.466;2023-03-14T08:08:27;2.58;;;2.22;;
18445;SDS011;9352;50.888;4.466;2023-03-14T08:10:53;6.45;;;2.40;;
18445;SDS011;9352;50.888;4.466;2023-03-14T08:13:22;5.45;;;2.20;;
18445;SDS011;9352;50.888;4.466;2023-03-14T08:15:50;4.32;;;1.73;;
18445;SDS011;9352;50.888;4.466;2023-03-14T08:18:17;8.18;;;2.30;;
18445;SDS011;9352;50.888;4.466;2023-03-14T08:20:44;6.05;;;2.30;;
18445;SDS011;9352;50.888;4.466;2023-03-14T08:23:11;4.18;;;2.28;;
18445;SDS011;9352;50.888;4.466;2023-03-14T08:25:38;8.02;;;3.40;;
18445;SDS011;9352;50.888;4.466;2023-03-14T08:28:05;8.27;;;2.78;;
18445;SDS011;9352;50.888;4.466;2023-03-14T08:30:33;6.85;;;3.15;;
18445;SDS011;9352;50.888;4.466;2023-03-14T08:33:00;9.95;;;3.85;;
18445;SDS011;9352;50.888;4.466;2023-03-14T08:35:27;9.68;;;3.00;;
18445;SDS011;9352;50.888;4.466;2023-03-14T08:37:54;4.18;;;2.65;;
18445;SDS011;9352;50.888;4.466;2023-03-14T08:40:21;5.93;;;3.42;;
18445;SDS011;9352;50.888;4.466;2023-03-14T08:42:48;3.58;;;2.75;;
18445;SDS011;9352;50.888;4.466;2023-03-14T08:45:15;8.93;;;3.58;;
18445;SDS011;9352;50.888;4.466;2023-03-14T08:47:44;5.20;;;3.80;;
18445;SDS011;9352;50.888;4.466;2023-03-14T08:50:12;17.52;;;5.30;;
18445;SDS011;9352;50.888;4.466;2023-03-14T08:52:39;15.18;;;3.72;;
18445;SDS011;9352;50.888;4.466;2023-03-14T08:55:06;5.40;;;3.40;;
18445;SDS011;9352;50.888;4.466;2023-03-14T08:57:34;4.32;;;3.58;;
18445;SDS011;9352;50.888;4.466;2023-03-14T09:00:02;16.25;;;6.70;;
18445;SDS011;9352;50.888;4.466;2023-03-14T09:02:34;6.05;;;3.63;;
18445;SDS011;9352;50.888;4.466;2023-03-14T09:05:02;10.25;;;3.30;;
18445;SDS011;9352;50.888;4.466;2023-03-14T09:07:29;5.65;;;2.83;;
18445;SDS011;9352;50.888;4.466;2023-03-14T09:09:56;7.07;;;2.60;;
18445;SDS011;9352;50.888;4.466;2023-03-14T09:12:23;5.70;;;2.58;;
18445;SDS011;9352;50.888;4.466;2023-03-14T09:14:50;5.95;;;2.95;;
18445;SDS011;9352;50.888;4.466;2023-03-14T09:17:16;5.38;;;3.45;;
18445;SDS011;9352;50.888;4.466;2023-03-14T09:19:43;2.72;;;2.35;;
18445;SDS011;9352;50.888;4.466;2023-03-14T09:22:12;8.13;;;2.92;;
18445;SDS011;9352;50.888;4.466;2023-03-14T09:24:39;3.10;;;2.67;;
18445;SDS011;9352;50.888;4.466;2023-03-14T09:27:06;4.45;;;3.15;;
18445;SDS011;9352;50.888;4.466;2023-03-14T09:29:33;9.13;;;3.70;;
18445;SDS011;9352;50.888;4.466;2023-03-14T09:32:00;6.40;;;2.95;;
18445;SDS011;9352;50.888;4.466;2023-03-14T09:34:28;9.82;;;3.47;;
18445;SDS011;9352;50.888;4.466;2023-03-14T09:36:55;6.82;;;2.78;;
18445;SDS011;9352;50.888;4.466;2023-03-14T09:39:23;7.85;;;2.60;;
18445;SDS011;9352;50.888;4.466;2023-03-14T09:41:51;6.93;;;3.00;;
18445;SDS011;9352;50.888;4.466;2023-03-14T09:44:20;19.35;;;3.20;;
18445;SDS011;9352;50.888;4.466;2023-03-14T09:46:50;10.77;;;2.78;;
18445;SDS011;9352;50.888;4.466;2023-03-14T09:49:20;8.50;;;2.67;;
18445;SDS011;9352;50.888;4.466;2023-03-14T09:51:50;8.93;;;2.88;;
18445;SDS011;9352;50.888;4.466;2023-03-14T09:54:27;14.57;;;3.33;;
18445;SDS011;9352;50.888;4.466;2023-03-14T09:57:00;10.75;;;3.28;;
18445;SDS011;9352;50.888;4.466;2023-03-14T09:59:28;12.05;;;3.17;;
18445;SDS011;9352;50.888;4.466;2023-03-14T10:01:56;18.88;;;3.25;;
18445;SDS011;9352;50.888;4.466;2023-03-14T10:04:26;7.68;;;3.20;;
18445;SDS011;9352;50.888;4.466;2023-03-14T10:06:55;11.98;;;2.85;;
18445;SDS011;9352;50.888;4.466;2023-03-14T10:09:23;11.20;;;2.80;;
18445;SDS011;9352;50.888;4.466;2023-03-14T10:11:53;11.48;;;3.10;;
18445;SDS011;9352;50.888;4.466;2023-03-14T10:14:32;3.83;;;2.38;;
18445;SDS011;9352;50.888;4.466;2023-03-14T10:17:07;12.30;;;2.55;;
18445;SDS011;9352;50.888;4.466;2023-03-14T10:19:36;8.20;;;2.67;;
18445;SDS011;9352;50.888;4.466;2023-03-14T10:22:03;9.95;;;3.00;;
18445;SDS011;9352;50.888;4.466;2023-03-14T10:24:33;12.55;;;2.92;;
18445;SDS011;9352;50.888;4.466;2023-03-14T10:27:02;6.13;;;1.73;;
18445;SDS011;9352;50.888;4.466;2023-03-14T10:29:30;7.10;;;1.90;;
18445;SDS011;9352;50.888;4.466;2023-03-14T10:31:59;10.75;;;2.10;;
18445;SDS011;9352;50.888;4.466;2023-03-14T10:34:28;4.93;;;2.08;;
18445;SDS011;9352;50.888;4.466;2023-03-14T10:36:57;6.32;;;1.58;;
18445;SDS011;9352;50.888;4.466;2023-03-14T10:39:26;8.77;;;1.98;;
18445;SDS011;9352;50.888;4.466;2023-03-14T10:42:03;5.15;;;1.70;;
18445;SDS011;9352;50.888;4.466;2023-03-14T10:44:33;7.20;;;1.88;;
18445;SDS011;9352;50.888;4.466;2023-03-14T10:47:02;8.65;;;2.22;;
18445;SDS011;9352;50.888;4.466;2023-03-14T10:49:31;5.70;;;1.60;;
18445;SDS011;9352;50.888;4.466;2023-03-14T10:52:03;3.65;;;1.40;;
18445;SDS011;9352;50.888;4.466;2023-03-14T10:54:41;7.70;;;1.50;;
18445;SDS011;9352;50.888;4.466;2023-03-14T10:57:13;6.63;;;1.40;;
18445;SDS011;9352;50.888;4.466;2023-03-14T10:59:41;2.53;;;1.40;;
18445;SDS011;9352;50.888;4.466;2023-03-14T11:02:31;7.15;;;1.50;;
18445;SDS011;9352;50.888;4.466;2023-03-14T11:05:11;5.88;;;1.80;;
18445;SDS011;9352;50.888;4.466;2023-03-14T11:07:47;2.38;;;1.73;;
18445;SDS011;9352;50.888;4.466;2023-03-14T11:10:16;4.13;;;1.60;;
18445;SDS011;9352;50.888;4.466;2023-03-14T11:12:54;2.85;;;1.38;;
18445;SDS011;9352;50.888;4.466;2023-03-14T11:15:32;2.17;;;1.60;;
18445;SDS011;9352;50.888;4.466;2023-03-14T11:20:53;5.72;;;1.20;;
18445;SDS011;9352;50.888;4.466;2023-03-14T11:23:27;2.15;;;1.30;;
18445;SDS011;9352;50.888;4.466;2023-03-14T11:25:59;1.98;;;1.30;;
18445;SDS011;9352;50.888;4.466;2023-03-14T11:28:37;3.15;;;1.45;;
18445;SDS011;9352;50.888;4.466;2023-03-14T11:31:11;3.08;;;1.23;;
18445;SDS011;9352;50.888;4.466;2023-03-14T11:33:45;3.65;;;1.40;;
18445;SDS011;9352;50.888;4.466;2023-03-14T11:36:19;5.00;;;1.42;;
18445;SDS011;9352;50.888;4.466;2023-03-14T11:38:48;4.00;;;1.20;;
18445;SDS011;9352;50.888;4.466;2023-03-14T11:41:17;0.80;;;0.80;;
18445;SDS011;9352;50.888;4.466;2023-03-14T11:43:51;2.50;;;1.88;;
18445;SDS011;9352;50.888;4.466;2023-03-14T11:46:21;1.20;;;1.10;;
18445;SDS011;9352;50.888;4.466;2023-03-14T11:48:54;1.70;;;0.95;;
18445;SDS011;9352;50.888;4.466;2023-03-14T11:51:29;6.00;;;1.15;;
18445;SDS011;9352;50.888;4.466;2023-03-14T11:54:00;2.55;;;1.15;;
18445;SDS011;9352;50.888;4.466;2023-03-14T11:56:35;3.25;;;1.23;;
18445;SDS011;9352;50.888;4.466;2023-03-14T11:59:11;1.50;;;1.40;;
18445;SDS011;9352;50.888;4.466;2023-03-14T12:01:53;3.40;;;1.45;;
18445;SDS011;9352;50.888;4.466;2023-03-14T12:07:14;3.03;;;1.40;;
18445;SDS011;9352;50.888;4.466;2023-03-14T12:09:45;3.67;;;1.48;;
18445;SDS011;9352;50.888;4.466;2023-03-14T12:12:16;2.65;;;1.65;;
18445;SDS011;9352;50.888;4.466;2023-03-14T12:14:51;2.90;;;1.42;;
18445;SDS011;9352;50.888;4.466;2023-03-14T12:17:20;2.45;;;1.52;;
18445;SDS011;9352;50.888;4.466;2023-03-14T12:19:59;3.80;;;1.20;;
18445;SDS011;9352;50.888;4.466;2023-03-14T12:22:31;6.80;;;1.50;;
18445;SDS011;9352;50.888;4.466;2023-03-14T12:25:05;2.28;;;1.30;;
18445;SDS011;9352;50.888;4.466;2023-03-14T12:27:42;2.78;;;1.35;;
18445;SDS011;9352;50.888;4.466;2023-03-14T12:30:24;2.63;;;1.55;;
18445;SDS011;9352;50.888;4.466;2023-03-14T12:33:19;2.10;;;1.90;;
18445;SDS011;9352;50.888;4.466;2023-03-14T12:35:52;6.22;;;1.83;;
18445;SDS011;9352;50.888;4.466;2023-03-14T12:38:26;2.25;;;1.77;;
18445;SDS011;9352;50.888;4.466;2023-03-14T12:41:05;8.50;;;1.98;;
18445;SDS011;9352;50.888;4.466;2023-03-14T12:43:39;7.57;;;2.15;;
18445;SDS011;9352;50.888;4.466;2023-03-14T12:46:09;4.33;;;1.70;;
18445;SDS011;9352;50.888;4.466;2023-03-14T12:48:45;5.43;;;1.60;;
18445;SDS011;9352;50.888;4.466;2023-03-14T12:51:13;4.05;;;1.80;;
18445;SDS011;9352;50.888;4.466;2023-03-14T12:56:51;6.40;;;1.70;;
18445;SDS011;9352;50.888;4.466;2023-03-14T12:59:45;2.33;;;1.80;;
18445;SDS011;9352;50.888;4.466;2023-03-14T13:02:25;2.83;;;1.70;;
18445;SDS011;9352;50.888;4.466;2023-03-14T13:04:59;5.45;;;1.92;;
18445;SDS011;9352;50.888;4.466;2023-03-14T13:07:33;5.72;;;2.00;;
18445;SDS011;9352;50.888;4.466;2023-03-14T13:10:16;3.67;;;2.05;;
18445;SDS011;9352;50.888;4.466;2023-03-14T13:12:48;6.90;;;1.98;;
18445;SDS011;9352;50.888;4.466;2023-03-14T13:15:18;5.28;;;2.22;;
18445;SDS011;9352;50.888;4.466;2023-03-14T13:17:52;6.35;;;2.22;;
18445;SDS011;9352;50.888;4.466;2023-03-14T13:20:23;9.80;;;2.47;;
18445;SDS011;9352;50.888;4.466;2023-03-14T13:22:55;7.30;;;2.30;;
18445;SDS011;9352;50.888;4.466;2023-03-14T13:25:22;5.93;;;2.10;;
18445;SDS011;9352;50.888;4.466;2023-03-14T13:27:49;7.00;;;1.92;;
18445;SDS011;9352;50.888;4.466;2023-03-14T13:30:21;10.83;;;2.37;;
18445;SDS011;9352;50.888;4.466;2023-03-14T13:32:50;15.80;;;2.70;;
18445;SDS011;9352;50.888;4.466;2023-03-14T13:35:20;14.70;;;2.70;;
18445;SDS011;9352;50.888;4.466;2023-03-14T13:37:56;20.40;;;2.70;;
18445;SDS011;9352;50.888;4.466;2023-03-14T13:40:26;19.40;;;2.80;;
18445;SDS011;9352;50.888;4.466;2023-03-14T13:43:00;22.20;;;2.78;;
18445;SDS011;9352;50.888;4.466;2023-03-14T13:45:30;14.70;;;2.60;;
18445;SDS011;9352;50.888;4.466;2023-03-14T13:47:58;17.45;;;2.85;;
18445;SDS011;9352;50.888;4.466;2023-03-14T13:50:25;19.17;;;2.70;;
18445;SDS011;9352;50.888;4.466;2023-03-14T13:52:55;15.25;;;2.53;;
18445;SDS011;9352;50.888;4.466;2023-03-14T13:55:23;24.65;;;3.13;;
18445;SDS011;9352;50.888;4.466;2023-03-14T13:57:50;13.48;;;2.60;;
18445;SDS011;9352;50.888;4.466;2023-03-14T14:00:20;20.52;;;2.78;;
18445;SDS011;9352;50.888;4.466;2023-03-14T14:02:51;17.80;;;2.75;;
18445;SDS011;9352;50.888;4.466;2023-03-14T14:05:21;24.38;;;3.33;;
18445;SDS011;9352;50.888;4.466;2023-03-14T14:07:48;17.55;;;3.13;;
18445;SDS011;9352;50.888;4.466;2023-03-14T14:10:16;18.10;;;2.83;;
18445;SDS011;9352;50.888;4.466;2023-03-14T14:12:44;26.23;;;3.63;;
18445;SDS011;9352;50.888;4.466;2023-03-14T14:15:16;25.30;;;4.07;;
18445;SDS011;9352;50.888;4.466;2023-03-14T14:17:47;23.98;;;4.50;;
18445;SDS011;9352;50.888;4.466;2023-03-14T14:20:23;25.90;;;4.88;;
18445;SDS011;9352;50.888;4.466;2023-03-14T14:22:57;18.13;;;3.88;;
18445;SDS011;9352;50.888;4.466;2023-03-14T14:25:25;11.05;;;2.05;;
18445;SDS011;9352;50.888;4.466;2023-03-14T14:27:52;19.77;;;2.53;;
18445;SDS011;9352;50.888;4.466;2023-03-14T14:30:27;16.25;;;2.50;;
18445;SDS011;9352;50.888;4.466;2023-03-14T14:33:09;15.23;;;2.28;;
18445;SDS011;9352;50.888;4.466;2023-03-14T14:35:40;8.60;;;1.95;;
18445;SDS011;9352;50.888;4.466;2023-03-14T14:38:11;14.80;;;2.40;;
18445;SDS011;9352;50.888;4.466;2023-03-14T14:40:45;12.30;;;1.70;;
18445;SDS011;9352;50.888;4.466;2023-03-14T14:43:15;17.15;;;1.80;;
18445;SDS011;9352;50.888;4.466;2023-03-14T14:45:45;16.50;;;2.08;;
18445;SDS011;9352;50.888;4.466;2023-03-14T14:48:15;16.83;;;1.85;;
18445;SDS011;9352;50.888;4.466;2023-03-14T14:50:54;8.50;;;1.60;;
18445;SDS011;9352;50.888;4.466;2023-03-14T14:53:24;9.07;;;1.30;;
18445;SDS011;9352;50.888;4.466;2023-03-14T14:55:55;2.15;;;0.60;;
18445;SDS011;9352;50.888;4.466;2023-03-14T14:58:24;8.25;;;1.02;;
18445;SDS011;9352;50.888;4.466;2023-03-14T15:00:54;4.13;;;0.90;;
18445;SDS011;9352;50.888;4.466;2023-03-14T15:03:28;3.22;;;0.70;;
18445;SDS011;9352;50.888;4.466;2023-03-14T15:05:58;1.02;;;0.70;;
18445;SDS011;9352;50.888;4.466;2023-03-14T15:08:26;3.03;;;0.85;;
18445;SDS011;9352;50.888;4.466;2023-03-14T15:10:53;2.92;;;1.00;;
18445;SDS011;9352;50.888;4.466;2023-03-14T15:13:20;6.15;;;0.80;;
18445;SDS011;9352;50.888;4.466;2023-03-14T15:15:47;1.38;;;1.10;;
18445;SDS011;9352;50.888;4.466;2023-03-14T15:18:20;2.72;;;1.00;;
18445;SDS011;9352;50.888;4.466;2023-03-14T15:20:48;4.47;;;1.02;;